Time;durP1;ratioP1;P1;durP2;ratioP2;P2;SDS_P1;SDS_P2;PMS_P1;PMS_P2;Temp;Humidity;BMP_temperature;BMP_pressure;BME280_temperature;BME280_humidity;BME280_pressure;Samples;Min_cycle;Max_cycle;Signal;HPM_P1;HPM_P2
2022/06/26 00:02:05;;;;;;;9.82;3.78;;;;;;;25.21;100.00;99894.00;5113035;28;20201;-70
2022/06/26 00:04:32;;;;;;;9.10;3.85;;;;;;;25.23;100.00;99889.47;5112219;28;20190;-68
2022/06/26 00:07:00;;;;;;;14.32;4.00;;;;;;;25.27;100.00;99901.66;5112537;28;20197;-68
2022/06/26 00:09:27;;;;;;;7.53;3.85;;;;;;;25.19;100.00;99893.19;5112665;28;20665;-69
2022/06/26 00:11:54;;;;;;;9.15;3.47;;;;;;;25.35;100.00;99901.28;5111926;28;20596;-68
2022/06/26 00:14:22;;;;;;;10.48;4.15;;;;;;;25.21;100.00;99846.22;5076894;28;20661;-68
2022/06/26 00:16:49;;;;;;;6.22;3.97;;;;;;;25.31;100.00;99887.31;5112574;28;20208;-68
2022/06/26 00:19:16;;;;;;;9.43;4.50;;;;;;;25.17;100.00;99892.41;5112693;28;20228;-68
2022/06/26 00:21:43;;;;;;;6.65;3.88;;;;;;;25.00;100.00;99879.97;5111940;28;20198;-68
2022/06/26 00:24:11;;;;;;;9.18;4.43;;;;;;;25.09;100.00;99898.09;5112100;28;20208;-68
2022/06/26 00:26:37;;;;;;;4.38;3.45;;;;;;;25.11;100.00;99904.16;5112033;28;20280;-69
2022/06/26 00:29:04;;;;;;;8.07;3.83;;;;;;;25.27;100.00;99893.69;5093414;28;20216;-67
2022/06/26 00:31:32;;;;;;;10.05;3.80;;;;;;;25.16;100.00;99912.78;5111936;28;20227;-68
2022/06/26 00:33:59;;;;;;;10.23;4.13;;;;;;;25.33;100.00;99913.78;5075845;28;20197;-68
2022/06/26 00:36:26;;;;;;;11.40;3.92;;;;;;;25.28;100.00;99910.47;5111606;28;20190;-68
2022/06/26 00:38:53;;;;;;;9.00;3.80;;;;;;;25.42;100.00;99905.38;5111734;28;20205;-68
2022/06/26 00:41:20;;;;;;;7.13;3.85;;;;;;;25.46;100.00;99906.94;5111933;28;20205;-68
2022/06/26 00:43:47;;;;;;;8.00;3.83;;;;;;;25.31;100.00;99895.25;5111917;28;20691;-68
2022/06/26 00:46:14;;;;;;;12.02;4.15;;;;;;;25.55;100.00;99910.03;5111917;28;20205;-68
2022/06/26 00:48:42;;;;;;;12.55;4.45;;;;;;;25.41;100.00;99914.25;5111873;28;20684;-68
2022/06/26 00:51:09;;;;;;;7.95;3.60;;;;;;;25.38;100.00;99911.75;5111547;28;20225;-68
2022/06/26 00:53:36;;;;;;;4.78;3.88;;;;;;;25.30;100.00;99908.59;5111968;28;20197;-68
2022/06/26 00:56:03;;;;;;;10.35;4.05;;;;;;;25.38;100.00;99891.38;5092952;28;20692;-68
2022/06/26 00:58:30;;;;;;;8.70;4.30;;;;;;;25.23;100.00;99901.88;5112144;28;20695;-68
2022/06/26 01:00:57;;;;;;;5.93;4.65;;;;;;;25.45;100.00;99919.34;5111024;28;20266;-68
2022/06/26 01:03:24;;;;;;;7.68;3.80;;;;;;;25.55;100.00;99915.34;5111791;28;20201;-68
2022/06/26 01:05:53;;;;;;;16.83;4.00;;;;;;;25.45;100.00;99919.34;5110821;28;20206;-68
2022/06/26 01:08:20;;;;;;;7.82;3.88;;;;;;;25.39;100.00;99902.88;5110993;28;20200;-68
2022/06/26 01:10:48;;;;;;;6.97;4.05;;;;;;;25.41;100.00;99904.50;5111530;28;20213;-68
2022/06/26 01:13:16;;;;;;;12.88;3.92;;;;;;;25.61;100.00;99914.19;5111797;28;20229;-68
2022/06/26 01:15:43;;;;;;;7.18;4.03;;;;;;;25.67;100.00;99919.19;5111328;28;20703;-68
2022/06/26 01:18:11;;;;;;;12.30;3.65;;;;;;;25.77;100.00;99941.72;5111438;28;20204;-68
2022/06/26 01:20:38;;;;;;;5.70;3.88;;;;;;;24.96;100.00;99936.75;5111187;28;20284;-68
2022/06/26 01:23:07;;;;;;;10.40;4.00;;;;;;;24.83;100.00;99932.91;5111238;28;20200;-68
2022/06/26 01:25:45;;;;;;;8.63;3.67;;;;;;;25.03;100.00;99932.88;5110725;28;20198;-68
2022/06/26 01:28:12;;;;;;;9.70;4.18;;;;;;;25.04;100.00;99923.13;5111455;28;20201;-68
2022/06/26 01:30:39;;;;;;;6.78;4.05;;;;;;;25.17;100.00;99946.34;5111129;28;20233;-68
2022/06/26 01:33:08;;;;;;;7.15;3.92;;;;;;;25.15;100.00;99945.56;5110596;28;20217;-68
2022/06/26 01:35:35;;;;;;;7.55;3.78;;;;;;;24.93;100.00;99962.56;5111480;28;20212;-68
2022/06/26 01:38:12;;;;;;;8.63;3.70;;;;;;;24.88;100.00;99922.97;5071671;28;20194;-67
2022/06/26 01:40:39;;;;;;;10.90;4.63;;;;;;;24.89;100.00;99953.88;5091048;28;20206;-68
2022/06/26 01:43:08;;;;;;;13.82;4.55;;;;;;;24.63;100.00;99933.78;5091164;28;20198;-67
2022/06/26 01:45:35;;;;;;;20.55;4.90;;;;;;;24.80;100.00;99972.81;5101541;28;20186;-67
2022/06/26 01:48:01;;;;;;;11.10;4.55;;;;;;;25.03;100.00;99975.31;5088071;28;20197;-67
2022/06/26 01:50:28;;;;;;;7.82;4.22;;;;;;;24.90;100.00;99934.34;5074415;28;20193;-68
2022/06/26 01:52:56;;;;;;;13.07;4.85;;;;;;;24.94;100.00;99970.41;5090943;28;20201;-67
2022/06/26 01:55:24;;;;;;;10.95;4.38;;;;;;;24.99;100.00;99971.09;5092012;28;20258;-67
2022/06/26 01:57:51;;;;;;;8.52;4.35;;;;;;;25.10;100.00;99982.06;5110980;28;20198;-67
2022/06/26 02:00:18;;;;;;;15.52;4.53;;;;;;;25.17;100.00;99972.91;5111138;28;20593;-68
2022/06/26 02:02:45;;;;;;;13.73;5.10;;;;;;;25.26;100.00;99976.03;5110851;28;20224;-67
2022/06/26 02:05:12;;;;;;;13.65;4.97;;;;;;;25.11;100.00;99967.84;5092247;28;20251;-68
2022/06/26 02:07:39;;;;;;;10.88;5.43;;;;;;;25.07;100.00;99987.53;5110687;28;20197;-68
2022/06/26 02:15:39;;;;;;;18.83;4.75;;;;;;;24.31;100.00;99984.72;5028051;28;20225;-68
2022/06/26 02:18:06;;;;;;;10.38;4.90;;;;;;;24.35;100.00;99990.75;5028257;28;20207;-68
2022/06/26 02:20:33;;;;;;;5.90;4.68;;;;;;;24.27;100.00;99993.72;4982222;28;20204;-67
2022/06/26 02:23:00;;;;;;;17.27;5.53;;;;;;;23.97;100.00;99984.38;5031787;28;20200;-67
2022/06/26 02:25:27;;;;;;;11.05;5.05;;;;;;;23.52;100.00;99977.34;5031735;28;20196;-67
2022/06/26 02:27:55;;;;;;;13.07;5.20;;;;;;;23.52;100.00;99950.00;5031539;28;20216;-68
2022/06/26 02:30:22;;;;;;;5.90;4.90;;;;;;;23.00;100.00;99888.53;5031674;28;20224;-67
2022/06/26 02:32:49;;;;;;;5.78;4.75;;;;;;;23.57;100.00;99963.94;5031973;28;20215;-67
2022/06/26 02:35:15;;;;;;;9.40;5.25;;;;;;;23.39;100.00;99938.16;4982316;28;20206;-68
2022/06/26 02:37:42;;;;;;;5.97;4.80;;;;;;;23.42;100.00;99956.59;5031220;28;20219;-67
2022/06/26 02:40:10;;;;;;;7.65;4.85;;;;;;;23.42;100.00;99949.53;5031767;28;20197;-67
2022/06/26 02:42:37;;;;;;;7.22;4.97;;;;;;;23.50;100.00;99958.03;5031803;28;20207;-67
2022/06/26 02:45:06;;;;;;;10.55;5.20;;;;;;;23.51;100.00;99954.44;5031167;28;20618;-67
2022/06/26 02:47:33;;;;;;;6.28;4.72;;;;;;;23.34;100.00;99977.16;4982145;28;20196;-67
2022/06/26 02:50:02;;;;;;;6.35;4.60;;;;;;;23.15;100.00;99971.75;5031646;28;20200;-68
2022/06/26 02:52:29;;;;;;;6.03;4.75;;;;;;;23.11;100.00;99964.84;5057378;28;20579;-68
2022/06/26 02:54:56;;;;;;;10.02;5.47;;;;;;;23.21;100.00;99976.78;5093746;28;20237;-67
2022/06/26 02:57:23;;;;;;;8.05;4.85;;;;;;;23.28;100.00;99980.06;5094369;28;20206;-68
2022/06/26 02:59:50;;;;;;;8.40;5.65;;;;;;;23.17;100.00;99965.47;5114437;28;20197;-68
2022/06/26 03:02:19;;;;;;;6.32;4.60;;;;;;;23.41;100.00;100011.31;5094735;28;20197;-67
2022/06/26 03:04:46;;;;;;;5.82;5.05;;;;;;;23.30;100.00;100000.22;5114213;28;20204;-68
2022/06/26 03:07:12;;;;;;;6.30;5.03;;;;;;;23.34;100.00;100001.84;5113525;28;20193;-67
2022/06/26 03:09:39;;;;;;;4.88;4.47;;;;;;;23.30;100.00;100000.22;5113936;28;20782;-68
2022/06/26 03:12:07;;;;;;;10.93;5.00;;;;;;;23.37;100.00;100008.78;5113967;28;20282;-68
2022/06/26 03:14:34;;;;;;;8.30;4.45;;;;;;;23.23;100.00;100010.19;5113786;28;20189;-68
2022/06/26 03:17:01;;;;;;;5.55;4.80;;;;;;;23.45;100.00;100004.97;5113157;28;20197;-68
2022/06/26 03:19:29;;;;;;;7.57;4.63;;;;;;;23.24;100.00;99997.84;5113070;28;20752;-68
2022/06/26 03:21:56;;;;;;;4.93;4.43;;;;;;;23.38;100.00;100021.13;5113267;28;20194;-68
2022/06/26 03:24:23;;;;;;;5.35;4.53;;;;;;;23.41;100.00;100016.59;5102051;28;20676;-68
2022/06/26 03:26:50;;;;;;;6.25;4.68;;;;;;;23.67;100.00;100039.41;5113289;28;20208;-68
2022/06/26 03:29:18;;;;;;;9.73;4.25;;;;;;;23.80;100.00;100043.31;5113722;28;20215;-68
2022/06/26 03:31:45;;;;;;;7.22;4.45;;;;;;;23.58;100.00;100040.63;5112486;28;20225;-67
2022/06/26 03:34:11;;;;;;;9.18;4.80;;;;;;;23.60;100.00;100043.22;5113043;28;20202;-68
2022/06/26 03:36:40;;;;;;;8.85;5.13;;;;;;;23.60;100.00;100038.81;5113392;28;20198;-68
2022/06/26 03:39:06;;;;;;;5.18;4.32;;;;;;;23.58;100.00;100018.63;5111438;28;20205;-68
2022/06/26 03:41:33;;;;;;;10.13;4.80;;;;;;;23.73;100.00;100040.94;5074009;28;20186;-68
2022/06/26 03:44:00;;;;;;;6.38;4.63;;;;;;;23.81;100.00;100046.81;5092921;28;20190;-68
2022/06/26 03:46:27;;;;;;;7.28;4.30;;;;;;;23.66;100.00;100040.34;5092973;28;20229;-68
2022/06/26 03:48:54;;;;;;;4.70;3.97;;;;;;;23.45;100.00;100049.09;5073884;28;20194;-68
2022/06/26 03:51:21;;;;;;;9.40;4.88;;;;;;;23.42;100.00;100033.34;5095266;28;20227;-67
2022/06/26 03:53:49;;;;;;;8.95;5.13;;;;;;;23.63;100.00;100033.38;5113142;28;20213;-68
2022/06/26 03:56:16;;;;;;;6.95;4.53;;;;;;;23.75;100.00;100032.03;5113110;28;20582;-67
2022/06/26 03:58:43;;;;;;;8.50;4.50;;;;;;;23.55;100.00;100035.47;5113030;28;20239;-67
2022/06/26 04:01:10;;;;;;;8.43;4.70;;;;;;;23.55;100.00;100032.81;5076981;28;20650;-69
2022/06/26 04:03:37;;;;;;;10.88;4.90;;;;;;;23.49;100.00;100033.06;5077225;28;20205;-67
2022/06/26 04:06:04;;;;;;;10.77;4.85;;;;;;;23.59;100.00;100025.63;5112906;28;20225;-68
2022/06/26 04:08:31;;;;;;;5.65;4.72;;;;;;;23.83;100.00;100040.53;5112584;28;20271;-68
2022/06/26 04:10:59;;;;;;;9.98;4.80;;;;;;;23.88;100.00;100020.03;5112662;28;20205;-68
2022/06/26 04:13:26;;;;;;;10.15;4.22;;;;;;;24.13;100.00;100033.16;5112791;28;20261;-67
2022/06/26 04:15:53;;;;;;;7.80;4.80;;;;;;;23.99;100.00;100030.19;5112367;28;20212;-68
2022/06/26 04:18:20;;;;;;;10.00;5.38;;;;;;;23.99;100.00;100015.16;5112893;28;20197;-68
2022/06/26 04:20:46;;;;;;;6.60;4.60;;;;;;;24.05;100.00;100019.34;5112632;28;20219;-68
2022/06/26 04:23:13;;;;;;;11.77;4.65;;;;;;;23.59;100.00;100004.44;5112599;28;20197;-68
2022/06/26 04:25:40;;;;;;;8.98;4.70;;;;;;;23.83;100.00;100014.03;5112304;28;20201;-68
2022/06/26 04:28:09;;;;;;;14.23;5.38;;;;;;;23.85;100.00;100014.00;5076487;28;20736;-67
2022/06/26 04:30:37;;;;;;;4.63;4.20;;;;;;;23.66;100.00;100006.78;5112533;28;20232;-68
2022/06/26 04:33:04;;;;;;;8.23;4.53;;;;;;;23.56;100.00;100015.16;5112318;28;20315;-68
2022/06/26 04:35:31;;;;;;;10.60;4.40;;;;;;;23.47;100.00;100016.34;5112044;28;20205;-68
2022/06/26 04:37:58;;;;;;;8.45;4.97;;;;;;;23.34;100.00;100015.06;5111949;28;20201;-68
2022/06/26 04:40:25;;;;;;;9.63;5.03;;;;;;;23.40;100.00;100024.59;5112174;28;20209;-68
2022/06/26 04:42:52;;;;;;;12.02;5.38;;;;;;;23.59;100.00;100030.91;5111238;28;20205;-68
2022/06/26 04:45:20;;;;;;;9.85;4.78;;;;;;;23.61;100.00;100045.84;5111541;28;20193;-68
2022/06/26 04:47:47;;;;;;;7.00;4.43;;;;;;;23.72;100.00;100042.75;5111509;28;20205;-67
2022/06/26 04:50:14;;;;;;;7.03;4.90;;;;;;;23.75;100.00;100045.28;5111863;28;20206;-67
2022/06/26 04:52:44;;;;;;;7.10;4.25;;;;;;;23.88;100.00;100049.16;5111800;28;20607;-68
2022/06/26 04:55:11;;;;;;;9.65;5.07;;;;;;;23.77;100.00;100046.06;5111816;28;20206;-69
2022/06/26 04:57:38;;;;;;;7.63;4.80;;;;;;;23.64;100.00;100052.78;5111555;28;20205;-68
2022/06/26 05:00:06;;;;;;;10.10;4.90;;;;;;;24.08;100.00;100062.47;5111815;28;20670;-68
2022/06/26 05:02:34;;;;;;;4.70;4.30;;;;;;;24.10;100.00;100060.63;5111610;28;20787;-68
2022/06/26 05:05:01;;;;;;;5.57;4.80;;;;;;;24.34;100.00;100060.56;5111424;28;20188;-67
2022/06/26 05:07:28;;;;;;;6.70;4.53;;;;;;;24.39;100.00;100061.25;5111896;28;20234;-67
2022/06/26 05:09:55;;;;;;;8.88;4.80;;;;;;;24.26;100.00;100070.66;5111449;28;20197;-67
2022/06/26 05:12:22;;;;;;;6.43;4.43;;;;;;;24.40;100.00;100060.34;5075634;28;20731;-67
2022/06/26 05:14:49;;;;;;;5.78;4.90;;;;;;;24.58;100.00;100083.38;5111599;28;20205;-69
2022/06/26 05:17:16;;;;;;;7.55;4.70;;;;;;;24.60;100.00;100066.50;5111837;28;20201;-69
2022/06/26 05:19:44;;;;;;;8.05;4.55;;;;;;;24.86;100.00;100091.97;5111255;28;20201;-69
2022/06/26 05:22:11;;;;;;;5.40;4.90;;;;;;;24.68;100.00;100090.88;5111464;28;20205;-68
2022/06/26 05:24:38;;;;;;;5.65;4.70;;;;;;;24.59;100.00;100095.72;5071742;28;20198;-68
2022/06/26 05:27:05;;;;;;;10.65;4.63;;;;;;;24.79;100.00;100098.41;5091174;28;20213;-68
2022/06/26 05:29:32;;;;;;;5.65;4.30;;;;;;;25.07;100.00;100104.28;5091150;28;20529;-68
2022/06/26 05:31:59;;;;;;;7.57;4.60;;;;;;;24.77;100.00;100075.53;5099758;28;20719;-68
2022/06/26 05:34:26;;;;;;;7.03;4.43;;;;;;;24.99;100.00;100093.13;5071534;28;20216;-68
2022/06/26 05:36:54;;;;;;;9.13;4.90;;;;;;;25.11;100.00;100083.78;5111365;28;20201;-68
2022/06/26 05:39:21;;;;;;;7.35;4.88;;;;;;;24.98;100.00;100104.66;5110799;28;20190;-68
2022/06/26 05:41:48;;;;;;;19.63;4.90;;;;;;;24.72;100.00;100091.66;5091081;28;20202;-68
2022/06/26 05:44:14;;;;;;;6.05;4.82;;;;;;;24.56;100.00;100086.13;5102658;28;20190;-68
2022/06/26 05:46:42;;;;;;;7.18;4.68;;;;;;;24.61;100.00;100093.91;5092447;28;20193;-67
2022/06/26 05:49:09;;;;;;;10.85;4.65;;;;;;;24.65;100.00;100082.19;5111531;28;20206;-67
2022/06/26 05:51:36;;;;;;;10.00;4.85;;;;;;;24.80;100.00;100092.16;5109154;28;20209;-67
2022/06/26 05:54:04;;;;;;;7.07;4.50;;;;;;;25.04;100.00;100109.69;5077633;28;20665;-67
2022/06/26 05:56:31;;;;;;;5.55;4.60;;;;;;;24.85;100.00;100111.44;5079756;28;20209;-68
2022/06/26 05:58:58;;;;;;;12.93;4.65;;;;;;;24.95;100.00;100119.84;5114945;28;20564;-68
2022/06/26 06:01:24;;;;;;;7.78;4.65;;;;;;;24.77;100.00;100116.16;5115638;27;20201;-68
2022/06/26 06:03:51;;;;;;;5.38;4.55;;;;;;;24.78;100.00;100115.25;5114975;28;20201;-68
2022/06/26 06:06:18;;;;;;;7.07;5.07;;;;;;;24.97;100.00;100102.94;5114654;28;20193;-68
2022/06/26 06:08:45;;;;;;;8.65;4.85;;;;;;;25.14;100.00;100121.66;5114839;28;20209;-74
2022/06/26 06:11:13;;;;;;;5.35;4.22;;;;;;;24.99;100.00;100122.31;5115410;28;20206;-69
2022/06/26 06:13:40;;;;;;;8.02;4.60;;;;;;;25.14;100.00;100126.97;5113932;28;20221;-68
2022/06/26 06:16:07;;;;;;;7.43;4.93;;;;;;;25.26;100.00;100122.03;5113997;28;20198;-68
2022/06/26 06:18:34;;;;;;;6.43;4.63;;;;;;;25.40;100.00;100127.59;5107896;28;20206;-68
2022/06/26 06:21:01;;;;;;;10.65;5.22;;;;;;;25.71;100.00;100138.59;5114903;28;20334;-68
2022/06/26 06:23:28;;;;;;;7.57;5.20;;;;;;;25.83;100.00;100127.38;5114317;28;20228;-68
2022/06/26 06:25:55;;;;;;;8.38;5.30;;;;;;;25.99;100.00;100131.03;5112671;28;20544;-68
2022/06/26 06:28:23;;;;;;;8.85;5.65;;;;;;;26.09;100.00;100129.66;5113708;28;20208;-68
2022/06/26 06:30:50;;;;;;;7.28;4.90;;;;;;;26.02;100.00;100111.41;5110371;28;20244;-68
2022/06/26 06:33:17;;;;;;;7.45;4.70;;;;;;;26.01;100.00;100133.59;5114854;28;20225;-69
2022/06/26 06:35:44;;;;;;;6.78;4.20;;;;;;;26.27;100.00;100135.94;5114571;28;20657;-69
2022/06/26 06:38:11;;;;;;;9.23;4.38;;;;;;;26.14;100.00;100138.28;5114929;28;20211;-68
2022/06/26 06:40:37;;;;;;;6.97;5.20;;;;;;;26.33;100.00;100126.78;5114671;28;20197;-68
2022/06/26 06:43:09;;;;;;;8.38;5.30;;;;;;;26.54;100.00;100128.41;5114296;28;20214;-68
2022/06/26 06:45:37;;;;;;;9.63;5.50;;;;;;;26.87;100.00;100134.69;5113983;28;20742;-68
2022/06/26 06:48:04;;;;;;;9.70;4.82;;;;;;;26.89;100.00;100138.16;5114149;28;20767;-68
2022/06/26 06:50:31;;;;;;;6.25;4.97;;;;;;;26.60;100.00;100131.63;5114369;28;20206;-69
2022/06/26 06:52:58;;;;;;;14.52;4.50;;;;;;;26.57;100.00;100146.88;5113695;28;20221;-69
2022/06/26 06:55:25;;;;;;;9.57;5.13;;;;;;;26.62;100.00;100144.81;5114488;28;20204;-68
2022/06/26 06:57:52;;;;;;;6.60;5.10;;;;;;;26.78;100.00;100152.91;5094923;28;20202;-69
2022/06/26 07:00:19;;;;;;;9.23;5.00;;;;;;;26.72;100.00;100156.72;5110194;28;20209;-68
2022/06/26 07:02:47;;;;;;;5.25;4.75;;;;;;;26.96;100.00;100155.53;5105542;28;20760;-68
2022/06/26 07:05:17;;;;;;;8.50;4.97;;;;;;;26.80;100.00;100157.22;5106850;28;20228;-69
2022/06/26 07:07:43;;;;;;;8.55;5.13;;;;;;;26.85;100.00;100162.34;5101501;28;20227;-67
2022/06/26 07:10:10;;;;;;;8.32;5.10;;;;;;;26.69;100.00;100175.50;5094100;28;20716;-66
2022/06/26 07:12:37;;;;;;;7.53;5.40;;;;;;;26.44;100.00;100167.00;5097313;28;20230;-66
2022/06/26 07:15:05;;;;;;;4.32;3.97;;;;;;;25.79;100.00;100173.59;5094736;28;20214;-65
2022/06/26 07:17:32;;;;;;;10.85;5.38;;;;;;;25.91;100.00;100175.72;5095661;28;20205;-66
2022/06/26 07:20:00;;;;;;;11.55;5.75;;;;;;;25.57;100.00;100172.88;5059325;28;20209;-65
2022/06/26 07:22:27;;;;;;;13.73;5.50;;;;;;;25.33;100.00;100169.47;5109584;28;20591;-65
2022/06/26 07:24:54;;;;;;;6.30;5.13;;;;;;;25.03;100.00;100157.53;5069846;28;20220;-67
2022/06/26 07:27:22;;;;;;;9.27;5.38;;;;;;;25.12;100.00;100149.16;5109805;28;20202;-66
2022/06/26 07:29:48;;;;;;;10.95;6.07;;;;;;;25.48;100.00;100158.16;5109877;28;20241;-66
2022/06/26 07:32:15;;;;;;;7.60;5.30;;;;;;;25.41;100.00;100170.00;5109960;28;20951;-66
2022/06/26 07:34:42;;;;;;;10.02;7.13;;;;;;;25.67;100.00;100163.56;5109241;28;20677;-67
2022/06/26 07:37:10;;;;;;;6.57;4.93;;;;;;;25.92;100.00;100179.22;5109472;28;20216;-70
2022/06/26 07:39:37;;;;;;;8.40;5.35;;;;;;;25.95;100.00;100177.28;5109152;28;20205;-67
2022/06/26 07:42:05;;;;;;;13.00;5.45;;;;;;;25.88;100.00;100165.22;5108995;28;20207;-67
2022/06/26 07:44:32;;;;;;;12.07;5.45;;;;;;;25.93;100.00;100165.03;5109105;28;20205;-67
2022/06/26 07:46:59;;;;;;;10.07;4.93;;;;;;;25.70;100.00;100174.03;5108847;28;20598;-66
2022/06/26 07:49:26;;;;;;;11.05;5.97;;;;;;;25.53;100.00;100177.47;5108544;28;20205;-66
2022/06/26 07:51:53;;;;;;;11.18;5.45;;;;;;;25.58;100.00;100179.88;5109047;28;20205;-66
2022/06/26 07:54:21;;;;;;;6.00;5.45;;;;;;;25.72;100.00;100188.09;5109099;28;20248;-66
2022/06/26 07:56:50;;;;;;;7.50;5.95;;;;;;;26.02;100.00;100192.03;5109096;28;20209;-66
2022/06/26 07:59:17;;;;;;;7.80;5.00;;;;;;;25.86;100.00;100190.16;5109285;28;20197;-66
2022/06/26 08:01:44;;;;;;;9.30;5.80;;;;;;;26.12;100.00;100197.75;5075780;28;20204;-66
2022/06/26 08:04:11;;;;;;;9.07;5.30;;;;;;;25.84;100.00;100203.50;5076322;28;20204;-66
2022/06/26 08:06:38;;;;;;;8.20;5.18;;;;;;;26.16;100.00;100196.69;5112366;28;20205;-66
2022/06/26 08:09:06;;;;;;;10.50;5.10;;;;;;;26.12;100.00;100203.06;5112577;28;20197;-67
2022/06/26 08:11:35;;;;;;;10.02;5.38;;;;;;;26.13;100.00;100195.03;5112366;28;20223;-67
2022/06/26 08:14:02;;;;;;;9.57;5.60;;;;;;;26.33;100.00;100206.53;5112180;28;20278;-67
2022/06/26 08:16:29;;;;;;;9.80;5.47;;;;;;;26.31;100.00;100192.47;5112060;28;20664;-67
2022/06/26 08:18:56;;;;;;;8.38;4.75;;;;;;;25.78;100.00;100187.84;5112943;28;20221;-68
2022/06/26 08:24:07;;;;;;;7.22;5.50;;;;;;;26.00;100.00;100204.53;5112338;28;20243;-68
2022/06/26 08:26:36;;;;;;;6.22;4.80;;;;;;;26.14;100.00;100206.53;5112554;28;20213;-67
2022/06/26 08:29:03;;;;;;;12.43;4.80;;;;;;;26.42;100.00;100204.31;5111864;28;20200;-67
2022/06/26 08:31:29;;;;;;;7.72;4.68;;;;;;;26.56;100.00;100203.66;5111795;28;20229;-67
2022/06/26 08:33:56;;;;;;;8.10;4.47;;;;;;;26.51;100.00;100203.88;5112036;28;20225;-68
2022/06/26 08:36:23;;;;;;;8.70;5.10;;;;;;;26.77;100.00;100204.41;5111880;28;20213;-68
2022/06/26 08:38:50;;;;;;;6.40;5.68;;;;;;;26.71;100.00;100186.09;5112097;28;20205;-68
2022/06/26 08:41:20;;;;;;;7.50;4.10;;;;;;;26.42;100.00;100207.00;5111354;28;20212;-68
2022/06/26 08:43:50;;;;;;;7.45;5.28;;;;;;;26.09;100.00;100187.28;5111591;28;20229;-68
2022/06/26 08:46:19;;;;;;;5.70;4.95;;;;;;;26.26;100.00;100213.09;5111879;28;20189;-68
2022/06/26 08:48:49;;;;;;;11.52;5.47;;;;;;;26.58;100.00;100207.09;5111630;28;20193;-68
2022/06/26 08:51:16;;;;;;;8.02;5.70;;;;;;;26.81;100.00;100212.16;5111884;28;20196;-68
2022/06/26 08:53:44;;;;;;;10.55;5.65;;;;;;;26.72;100.00;100209.94;5111574;28;20232;-67
2022/06/26 08:56:11;;;;;;;7.95;4.78;;;;;;;26.76;100.00;100226.59;5111478;28;20208;-67
2022/06/26 08:58:39;;;;;;;8.65;5.10;;;;;;;26.35;100.00;100205.56;5111740;28;20598;-67
2022/06/26 09:01:07;;;;;;;11.02;5.30;;;;;;;26.84;100.00;100203.19;5111210;28;20673;-67
2022/06/26 09:03:35;;;;;;;9.85;5.85;;;;;;;26.13;100.00;100226.06;5111203;28;20235;-68
2022/06/26 09:06:01;;;;;;;7.10;5.50;;;;;;;26.23;100.00;100229.19;5111907;28;20197;-67
2022/06/26 09:08:31;;;;;;;6.35;5.05;;;;;;;26.25;100.00;100222.03;5111604;28;20207;-67
2022/06/26 09:10:58;;;;;;;14.52;5.50;;;;;;;26.41;100.00;100236.31;5111247;28;20198;-68
2022/06/26 09:13:37;;;;;;;9.55;6.20;;;;;;;26.60;100.00;100250.47;5111406;28;20315;-68
2022/06/26 09:16:04;;;;;;;7.15;5.47;;;;;;;26.42;100.00;100246.00;5111595;28;20266;-67
2022/06/26 09:18:36;;;;;;;8.90;4.55;;;;;;;26.73;100.00;100256.91;5110163;28;20201;-67
2022/06/26 09:21:05;;;;;;;5.65;4.90;;;;;;;26.12;100.00;100233.19;5111481;28;20204;-68
2022/06/26 09:23:33;;;;;;;8.93;4.65;;;;;;;26.14;100.00;100236.66;5111047;28;20201;-72
2022/06/26 09:26:00;;;;;;;5.28;4.38;;;;;;;25.82;100.00;100239.03;5111634;28;20206;-67
2022/06/26 09:28:27;;;;;;;5.53;4.13;;;;;;;25.78;100.00;100234.78;5110394;28;20205;-69
2022/06/26 09:30:56;;;;;;;6.43;4.82;;;;;;;25.76;100.00;100232.19;5111488;28;20229;-68
2022/06/26 09:33:25;;;;;;;4.75;4.30;;;;;;;25.96;100.00;100256.09;5110348;28;20567;-68
2022/06/26 09:35:55;;;;;;;7.07;4.50;;;;;;;25.83;100.00;100249.59;5110916;28;20196;-69
2022/06/26 09:38:24;;;;;;;9.05;4.68;;;;;;;25.84;100.00;100246.00;5110809;28;20212;-67
2022/06/26 09:40:54;;;;;;;7.80;4.45;;;;;;;26.00;100.00;100235.56;5107849;28;20197;-68
2022/06/26 09:43:29;;;;;;;7.18;4.63;;;;;;;25.63;100.00;100215.09;5111009;28;20213;-68
2022/06/26 09:45:57;;;;;;;12.82;4.65;;;;;;;26.08;100.00;100244.88;5109347;28;20192;-66
2022/06/26 09:48:25;;;;;;;5.50;4.85;;;;;;;26.47;100.00;100247.50;5110447;28;20189;-67
2022/06/26 09:50:54;;;;;;;11.27;4.53;;;;;;;26.28;100.00;100229.84;5101956;28;20229;-67
2022/06/26 09:53:22;;;;;;;8.18;4.57;;;;;;;25.88;100.00;100209.53;5092280;28;20240;-68
2022/06/26 09:55:50;;;;;;;5.90;4.72;;;;;;;26.14;100.00;100243.75;5088348;28;20280;-68
2022/06/26 09:58:18;;;;;;;6.53;5.15;;;;;;;26.35;100.00;100242.78;5104635;28;20202;-68
2022/06/26 10:06:25;;;;;;;8.50;5.22;;;;;;;26.69;100.00;100243.81;5105333;28;20943;-72
2022/06/26 10:06:29;;;;;;;7.50;5.32;;;;;;;25.75;100.00;100240.25;5105830;28;20261;-69
2022/06/26 10:08:57;;;;;;;13.35;5.10;;;;;;;25.98;100.00;100248.91;5105510;28;20201;-70
2022/06/26 10:11:27;;;;;;;12.70;5.40;;;;;;;25.82;100.00;100221.31;5105731;28;20198;-70
2022/06/26 10:13:59;;;;;;;5.45;5.00;;;;;;;26.04;100.00;100237.16;5096661;28;20240;-73
2022/06/26 10:17:14;;;;;;;5.88;5.28;;;;;;;25.94;100.00;100252.63;5106029;28;20229;-74
2022/06/26 10:19:45;;;;;;;5.70;5.20;;;;;;;26.19;100.00;100249.75;5042117;28;20766;-71
2022/06/26 10:22:14;;;;;;;10.40;5.00;;;;;;;26.15;100.00;100241.00;5042565;28;20210;-68
2022/06/26 10:24:52;;;;;;;6.03;4.90;;;;;;;26.02;100.00;100229.22;5042393;28;20258;-72
2022/06/26 10:27:25;;;;;;;7.35;5.10;;;;;;;25.89;100.00;100244.00;5042532;28;20670;-73
2022/06/26 10:30:05;;;;;;;5.65;4.80;;;;;;;25.85;100.00;100231.78;5042137;28;20220;-69
2022/06/26 10:32:33;;;;;;;11.60;5.20;;;;;;;25.83;100.00;100236.28;5042794;28;20799;-72
2022/06/26 10:35:00;;;;;;;7.35;4.97;;;;;;;25.86;100.00;100224.69;5009663;28;20224;-72
2022/06/26 10:37:40;;;;;;;9.88;5.32;;;;;;;25.73;100.00;100218.19;5041647;28;20920;-72
2022/06/26 10:42:52;;;;;;;12.05;5.78;;;;;;;25.90;100.00;100245.72;5043772;28;20202;-72
2022/06/26 10:43:00;;;;;;;8.95;5.20;;;;;;;25.79;100.00;100209.97;5047072;28;20211;-71
2022/06/26 10:45:30;;;;;;;20.25;15.25;;;;;;;26.49;100.00;100248.31;5046833;28;20214;-69
2022/06/26 10:47:59;;;;;;;10.07;7.97;;;;;;;26.49;100.00;100240.34;5029587;28;20219;-70
2022/06/26 10:50:35;;;;;;;7.68;5.97;;;;;;;26.52;100.00;100224.22;5025531;28;20192;-71
2022/06/26 10:53:19;;;;;;;8.63;5.60;;;;;;;26.69;100.00;100225.19;5063823;28;20197;-70
2022/06/26 10:55:48;;;;;;;7.70;6.00;;;;;;;26.77;100.00;100220.34;5095007;28;20227;-71
2022/06/26 10:58:21;;;;;;;11.90;6.22;;;;;;;26.82;100.00;100221.91;5109680;28;20217;-72
2022/06/26 11:00:49;;;;;;;7.35;5.65;;;;;;;26.41;100.00;100156.53;5110053;28;20217;-71
2022/06/26 11:03:17;;;;;;;8.48;6.40;;;;;;;26.86;100.00;100218.13;5109907;28;20235;-70
2022/06/26 11:05:52;;;;;;;8.65;6.07;;;;;;;25.97;100.00;100166.59;5110366;28;20593;-68
2022/06/26 11:08:31;;;;;;;9.25;6.30;;;;;;;26.23;100.00;100226.53;5109386;28;20197;-67
2022/06/26 11:11:02;;;;;;;6.55;5.22;;;;;;;26.23;100.00;100226.53;5109668;28;20855;-67
2022/06/26 11:13:30;;;;;;;8.68;6.53;;;;;;;26.25;100.00;100216.69;5090248;28;20225;-67
2022/06/26 11:15:57;;;;;;;7.47;6.00;;;;;;;26.11;100.00;100220.81;5109829;28;20206;-68
2022/06/26 11:18:24;;;;;;;16.52;6.63;;;;;;;26.18;100.00;100148.81;5109293;28;20209;-68
2022/06/26 11:20:54;;;;;;;8.80;5.78;;;;;;;26.61;100.00;100221.09;5109585;28;20201;-68
2022/06/26 11:23:23;;;;;;;11.80;5.95;;;;;;;26.77;100.00;100207.06;5110225;28;20212;-68
2022/06/26 11:25:55;;;;;;;10.18;6.53;;;;;;;26.58;100.00;100217.72;5073492;28;20197;-68
2022/06/26 11:28:28;;;;;;;7.88;5.57;;;;;;;26.47;100.00;100188.16;5103956;28;20286;-69
2022/06/26 11:30:54;;;;;;;6.82;5.40;;;;;;;26.84;100.00;100206.72;5109523;28;20233;-69
2022/06/26 11:33:26;;;;;;;11.75;5.07;;;;;;;26.99;100.00;100197.09;5109465;28;20197;-69